KPSM/PSM METAR and TAF weather

Enter ICAO airport designator
Station Type Date Time Source
KPSM METAR 2019/10/15 07:56 UTC NOAA

KPSM 150756Z 28005KT 10SM SCT080 11/07 A3001 RMK AO2A SLP165 T01120067


Station Type Date Time Source
KPSM Decoded METAR 2019/10/15 07:56 UTC NOAA

Pease Air Force Base / Portsmouth, NH, United States (KPSM) 43-05N 070-49W
Oct 15, 2019 - 03:56 AM EDT / 2019.10.15 0756 UTC
Wind: from the W (280 degrees) at 6 MPH (5 KT):0
Visibility: 10 mile(s):0
Sky conditions: partly cloudy
Temperature: 52.2 F (11.2 C)
Dew Point: 44.1 F (6.7 C)
Relative Humidity: 73%
Pressure (altimeter): 30.01 in. Hg (1016 hPa)
ob: KPSM 150756Z 28005KT 10SM SCT080 11/07 A3001 RMK AO2A SLP165 T01120067
cycle: 8

Station Type Date Time Source
KPSM TAF 2019/10/15 06:22 UTC NOAA

TAF KPSM 150520Z 1506/1606 29006KT P6SM FEW080
FM152100 VRB03KT P6SM SKC

Example: see airport list